Kenai Municipal Airport
PAEN : now visible

Airfield :











YOU CAN JOIN US ON...

 
LOGIN :

Register | Disclaimer

   EN    FR    IT 

 









Legend :    VFR   Marginal VFR   IFR   Intensive IFR   Very Intensive IFR
Visi :
Ceiling :
>= 8 km
>= 3000ft
5 to 8 km
1000 to 3000 ft
1500m to 5 km
500 to 1000 ft
800 to 1500m
200 to 500 ft
< 800m
< 200 ft
Symbols :   Thunderstorms  Fog  Heavy snow  Heavy precipitations  Wind > 20 kt






- Airport Elevation : 99 ft
- IATA code : ENA


PAEN - Kenai Municipal

CURRENT METAR :
  • 281702Z 07004KT 1/2SM FZFG VV003 M03/M04 A3004 RMK AO2 I1000 T10331039

EXPIRED METARs :
  • 281653Z 08006KT 1/4SM FZFG VV003 M03/M04 A3003 RMK AO2 SLP174 I1005 T10331044
  • 281638Z 08006KT 1/2SM FZFG VV003 M03/M04 A3003 RMK AO2 I1003 T10331044
  • 281625Z 08008KT 1/4SM FZFG VV002 M04/M05 A3003 RMK AO2 I1002 T10391050
  • 281616Z 08008KT 1/2SM FZFG VV002 M04/M06 A3003 RMK AO2 I1001 T10441061
  • 281553Z 05005KT 10SM FEW002 M07/M08 A3003 RMK AO2 SLP172 I1000 T10671083
  • 281453Z 03004KT 10SM CLR M07/M08 A3002 RMK AO2 SLP171 I1000 I3000 T10671083 53001

TAF PAEN
Valid from the 28 at 18:00 until the 29 at 18:00 UTC


281720Z 2818/2918 03003KT 1/4SM FZFG VV003
FM282100 03003KT P6SM VCFG FEW003
FM282300 05005KT P6SM SKC
FM291400 05003KT P6SM VCFG SCT003
PAZA FIR / North America



MET'MAP, your aeronautical weather chart ! - Copyright ORBIFLY December 2007 - Disclaimer

ORBIFLY MET'MAP TEAM :

Programming & Development : Alexandra Zaïnal
Concept & original design : Baudouin d'Aumeries
Assistance for programming : Marc-Olivier Méhu
Technical & hardware support : Manuel Goepfert

Contact : metmap@orbifly.com




SOURCES & CREDITS :

   NOAA       Earth
Advisory